メインページ
METAR-TAF:

METAR-TAF

空港 :

グラン・カナリア空港

グラン・カナリア島, スペイン

緯度: 27-56N, 経度: 015-23W, 海抜: 23m

現時点の気象観測

当レポートは38分前の06:00(UTC)に作成
西/北西の風 5kt
気温 16°C
湿度 82%
気圧 1018 hPa
視程10km以上
高度3000ftの雲はほとんどない

METAR: GCLP 150600Z 29005KT 9999 FEW030 16/13 Q1018 NOSIG

時間: 06:38 (06:38 UTC)

予報

当レポートは4時間38分前の02:00(UTC)に作成
予報は15日の 03時(UTC)から 16日の 03時(UTC)まで有効
の風 10kt
視程10km以上
高度2000ftの雲は散在している
確率 40% :
15日の 09時(UTC)から 15日の 18時(UTC)まで一時的に
南/南東の風 5kt

TAF: GCLP 150200Z 1503/1603 36010KT 9999 SCT020 TX21/1515Z TN17/1506Z PROB40 TEMPO 1509/1518 15005KT

4,000以上の空港の気象観測と天気予報(METAR報とTAF報)

利用可能な観測所は地図上に黄色い丸と赤い丸で示す。

丸の上にカーソルを重ねると観測所名を参照できる。

次にクリックすると気象観測と天気予報を参照できる。

マップの切り替え:黒色「×」印の緑ボタンをクリックして拡大、「-」印の緑ボタンをクリックして縮小、緑色の三角印をクリックして隣りの地図に切り替え


METAR-TAF: